sensor_id;sensor_type;location;lat;lon;timestamp;P1;durP1;ratioP1;P2;durP2;ratioP2
76863;SDS011;65834;52.364;9.754;2024-01-16T00:00:30;5.97;;;1.50;;
76863;SDS011;65834;52.364;9.754;2024-01-16T00:02:59;3.05;;;1.15;;
76863;SDS011;65834;52.364;9.754;2024-01-16T00:05:29;6.30;;;1.67;;
76863;SDS011;65834;52.364;9.754;2024-01-16T00:07:59;3.03;;;1.17;;
76863;SDS011;65834;52.364;9.754;2024-01-16T00:10:28;3.33;;;1.40;;
76863;SDS011;65834;52.364;9.754;2024-01-16T00:12:58;7.83;;;1.43;;
76863;SDS011;65834;52.364;9.754;2024-01-16T00:15:30;4.57;;;1.37;;
76863;SDS011;65834;52.364;9.754;2024-01-16T00:18:00;3.78;;;1.10;;
76863;SDS011;65834;52.364;9.754;2024-01-16T00:20:29;2.60;;;1.37;;
76863;SDS011;65834;52.364;9.754;2024-01-16T00:22:59;4.40;;;1.10;;
76863;SDS011;65834;52.364;9.754;2024-01-16T00:25:29;4.13;;;1.03;;
76863;SDS011;65834;52.364;9.754;2024-01-16T00:27:58;4.03;;;1.20;;
76863;SDS011;65834;52.364;9.754;2024-01-16T00:30:31;2.13;;;1.00;;
76863;SDS011;65834;52.364;9.754;2024-01-16T00:33:00;1.88;;;1.00;;
76863;SDS011;65834;52.364;9.754;2024-01-16T00:35:30;3.73;;;1.03;;
76863;SDS011;65834;52.364;9.754;2024-01-16T00:38:00;1.90;;;0.90;;
76863;SDS011;65834;52.364;9.754;2024-01-16T00:40:29;2.63;;;0.80;;
76863;SDS011;65834;52.364;9.754;2024-01-16T00:42:59;4.10;;;1.00;;
76863;SDS011;65834;52.364;9.754;2024-01-16T00:45:31;1.40;;;0.60;;
76863;SDS011;65834;52.364;9.754;2024-01-16T00:48:00;2.25;;;0.80;;
76863;SDS011;65834;52.364;9.754;2024-01-16T00:50:32;2.20;;;0.80;;
76863;SDS011;65834;52.364;9.754;2024-01-16T00:53:01;1.80;;;1.00;;
76863;SDS011;65834;52.364;9.754;2024-01-16T00:55:31;1.00;;;0.57;;
76863;SDS011;65834;52.364;9.754;2024-01-16T00:58:01;1.53;;;0.80;;
76863;SDS011;65834;52.364;9.754;2024-01-16T01:00:33;2.77;;;0.80;;
76863;SDS011;65834;52.364;9.754;2024-01-16T01:03:04;2.30;;;0.70;;
76863;SDS011;65834;52.364;9.754;2024-01-16T01:05:33;3.40;;;0.80;;
76863;SDS011;65834;52.364;9.754;2024-01-16T01:08:03;0.80;;;0.63;;
76863;SDS011;65834;52.364;9.754;2024-01-16T01:10:33;4.53;;;1.27;;
76863;SDS011;65834;52.364;9.754;2024-01-16T01:13:03;6.10;;;1.53;;
76863;SDS011;65834;52.364;9.754;2024-01-16T01:15:35;6.57;;;1.33;;
76863;SDS011;65834;52.364;9.754;2024-01-16T01:18:05;1.85;;;0.95;;
76863;SDS011;65834;52.364;9.754;2024-01-16T01:20:36;5.37;;;1.33;;
76863;SDS011;65834;52.364;9.754;2024-01-16T01:23:05;2.90;;;1.10;;
76863;SDS011;65834;52.364;9.754;2024-01-16T01:25:36;3.07;;;1.40;;
76863;SDS011;65834;52.364;9.754;2024-01-16T01:28:06;3.83;;;1.40;;
76863;SDS011;65834;52.364;9.754;2024-01-16T01:30:38;3.77;;;1.53;;
76863;SDS011;65834;52.364;9.754;2024-01-16T01:33:08;6.70;;;1.40;;
76863;SDS011;65834;52.364;9.754;2024-01-16T01:35:39;4.57;;;1.70;;
76863;SDS011;65834;52.364;9.754;2024-01-16T01:38:08;5.53;;;1.40;;
76863;SDS011;65834;52.364;9.754;2024-01-16T01:40:38;4.47;;;1.23;;
76863;SDS011;65834;52.364;9.754;2024-01-16T01:43:19;4.53;;;1.47;;
76863;SDS011;65834;52.364;9.754;2024-01-16T01:45:56;3.60;;;1.50;;
76863;SDS011;65834;52.364;9.754;2024-01-16T01:48:37;4.33;;;1.37;;
76863;SDS011;65834;52.364;9.754;2024-01-16T01:51:09;2.97;;;1.10;;
76863;SDS011;65834;52.364;9.754;2024-01-16T01:53:41;4.33;;;1.20;;
76863;SDS011;65834;52.364;9.754;2024-01-16T01:56:13;2.67;;;1.08;;
76863;SDS011;65834;52.364;9.754;2024-01-16T01:58:45;4.23;;;1.20;;
76863;SDS011;65834;52.364;9.754;2024-01-16T02:01:18;4.97;;;1.20;;
76863;SDS011;65834;52.364;9.754;2024-01-16T02:03:49;2.87;;;1.50;;
76863;SDS011;65834;52.364;9.754;2024-01-16T02:06:21;3.92;;;1.40;;
76863;SDS011;65834;52.364;9.754;2024-01-16T02:08:51;3.60;;;1.20;;
76863;SDS011;65834;52.364;9.754;2024-01-16T02:11:20;4.70;;;1.00;;
76863;SDS011;65834;52.364;9.754;2024-01-16T02:13:50;3.00;;;1.00;;
76863;SDS011;65834;52.364;9.754;2024-01-16T02:16:22;2.70;;;1.20;;
76863;SDS011;65834;52.364;9.754;2024-01-16T02:18:53;2.83;;;0.97;;
76863;SDS011;65834;52.364;9.754;2024-01-16T02:21:24;2.43;;;0.80;;
76863;SDS011;65834;52.364;9.754;2024-01-16T02:23:59;2.60;;;0.80;;
76863;SDS011;65834;52.364;9.754;2024-01-16T02:26:28;4.15;;;0.95;;
76863;SDS011;65834;52.364;9.754;2024-01-16T02:29:00;4.83;;;0.93;;
76863;SDS011;65834;52.364;9.754;2024-01-16T02:31:30;7.00;;;1.07;;
76863;SDS011;65834;52.364;9.754;2024-01-16T02:34:00;3.97;;;1.20;;
76863;SDS011;65834;52.364;9.754;2024-01-16T02:36:32;3.90;;;1.00;;
76863;SDS011;65834;52.364;9.754;2024-01-16T02:39:04;5.40;;;1.03;;
76863;SDS011;65834;52.364;9.754;2024-01-16T02:41:34;3.90;;;1.10;;
76863;SDS011;65834;52.364;9.754;2024-01-16T02:44:04;5.67;;;1.17;;
76863;SDS011;65834;52.364;9.754;2024-01-16T02:46:34;4.53;;;1.20;;
76863;SDS011;65834;52.364;9.754;2024-01-16T02:49:05;4.77;;;1.10;;
76863;SDS011;65834;52.364;9.754;2024-01-16T02:51:35;4.23;;;1.07;;
76863;SDS011;65834;52.364;9.754;2024-01-16T02:54:07;4.00;;;1.00;;
76863;SDS011;65834;52.364;9.754;2024-01-16T02:56:38;3.40;;;0.93;;
76863;SDS011;65834;52.364;9.754;2024-01-16T02:59:08;3.70;;;1.10;;
76863;SDS011;65834;52.364;9.754;2024-01-16T03:01:38;3.10;;;1.20;;
76863;SDS011;65834;52.364;9.754;2024-01-16T03:04:07;2.57;;;0.80;;
76863;SDS011;65834;52.364;9.754;2024-01-16T03:06:37;2.53;;;0.90;;
76863;SDS011;65834;52.364;9.754;2024-01-16T03:09:09;4.73;;;0.90;;
76863;SDS011;65834;52.364;9.754;2024-01-16T03:11:39;2.42;;;1.00;;
76863;SDS011;65834;52.364;9.754;2024-01-16T03:14:09;5.53;;;1.20;;
76863;SDS011;65834;52.364;9.754;2024-01-16T03:16:39;3.97;;;0.87;;
76863;SDS011;65834;52.364;9.754;2024-01-16T03:19:09;3.90;;;1.17;;
76863;SDS011;65834;52.364;9.754;2024-01-16T03:21:38;6.60;;;1.23;;
76863;SDS011;65834;52.364;9.754;2024-01-16T03:24:10;5.27;;;1.10;;
76863;SDS011;65834;52.364;9.754;2024-01-16T03:26:40;3.90;;;1.33;;
76863;SDS011;65834;52.364;9.754;2024-01-16T03:29:10;5.53;;;1.30;;
76863;SDS011;65834;52.364;9.754;2024-01-16T03:31:40;7.93;;;2.20;;
76863;SDS011;65834;52.364;9.754;2024-01-16T03:34:09;5.70;;;1.80;;
76863;SDS011;65834;52.364;9.754;2024-01-16T03:36:39;5.30;;;2.10;;
76863;SDS011;65834;52.364;9.754;2024-01-16T03:39:11;3.97;;;1.40;;
76863;SDS011;65834;52.364;9.754;2024-01-16T03:41:41;6.93;;;1.88;;
76863;SDS011;65834;52.364;9.754;2024-01-16T03:44:11;5.13;;;1.43;;
76863;SDS011;65834;52.364;9.754;2024-01-16T03:46:40;5.43;;;1.57;;
76863;SDS011;65834;52.364;9.754;2024-01-16T03:49:10;6.73;;;1.80;;
76863;SDS011;65834;52.364;9.754;2024-01-16T03:51:40;9.20;;;2.00;;
76863;SDS011;65834;52.364;9.754;2024-01-16T03:54:15;8.57;;;1.60;;
76863;SDS011;65834;52.364;9.754;2024-01-16T03:56:45;9.15;;;1.40;;
76863;SDS011;65834;52.364;9.754;2024-01-16T03:59:14;5.43;;;1.50;;
76863;SDS011;65834;52.364;9.754;2024-01-16T04:01:44;7.23;;;1.67;;
76863;SDS011;65834;52.364;9.754;2024-01-16T04:04:15;6.27;;;1.90;;
76863;SDS011;65834;52.364;9.754;2024-01-16T04:06:45;7.03;;;1.33;;
76863;SDS011;65834;52.364;9.754;2024-01-16T04:09:17;8.10;;;1.70;;
76863;SDS011;65834;52.364;9.754;2024-01-16T04:11:49;4.13;;;1.05;;
76863;SDS011;65834;52.364;9.754;2024-01-16T04:14:19;3.08;;;1.25;;
76863;SDS011;65834;52.364;9.754;2024-01-16T04:16:49;7.07;;;1.40;;
76863;SDS011;65834;52.364;9.754;2024-01-16T04:19:19;3.83;;;1.10;;
76863;SDS011;65834;52.364;9.754;2024-01-16T04:21:49;8.10;;;1.10;;
76863;SDS011;65834;52.364;9.754;2024-01-16T04:24:21;3.70;;;0.97;;
76863;SDS011;65834;52.364;9.754;2024-01-16T04:26:50;5.78;;;1.50;;
76863;SDS011;65834;52.364;9.754;2024-01-16T04:29:20;3.77;;;1.20;;
76863;SDS011;65834;52.364;9.754;2024-01-16T04:31:50;3.97;;;1.00;;
76863;SDS011;65834;52.364;9.754;2024-01-16T04:34:19;4.23;;;1.77;;
76863;SDS011;65834;52.364;9.754;2024-01-16T04:36:49;9.83;;;1.50;;
76863;SDS011;65834;52.364;9.754;2024-01-16T04:39:21;9.80;;;1.43;;
76863;SDS011;65834;52.364;9.754;2024-01-16T04:41:51;4.72;;;1.25;;
76863;SDS011;65834;52.364;9.754;2024-01-16T04:44:21;4.77;;;1.50;;
76863;SDS011;65834;52.364;9.754;2024-01-16T04:46:50;7.33;;;1.43;;
76863;SDS011;65834;52.364;9.754;2024-01-16T04:49:20;6.87;;;1.33;;
76863;SDS011;65834;52.364;9.754;2024-01-16T04:51:50;6.63;;;1.67;;
76863;SDS011;65834;52.364;9.754;2024-01-16T04:54:23;8.77;;;1.57;;
76863;SDS011;65834;52.364;9.754;2024-01-16T04:56:52;7.75;;;1.40;;
76863;SDS011;65834;52.364;9.754;2024-01-16T04:59:22;7.53;;;1.80;;
76863;SDS011;65834;52.364;9.754;2024-01-16T05:01:51;6.13;;;1.50;;
76863;SDS011;65834;52.364;9.754;2024-01-16T05:04:21;5.67;;;1.47;;
76863;SDS011;65834;52.364;9.754;2024-01-16T05:06:51;3.63;;;1.07;;
76863;SDS011;65834;52.364;9.754;2024-01-16T05:09:24;6.70;;;1.60;;
76863;SDS011;65834;52.364;9.754;2024-01-16T05:11:53;5.25;;;2.15;;
76863;SDS011;65834;52.364;9.754;2024-01-16T05:14:23;4.73;;;1.40;;
76863;SDS011;65834;52.364;9.754;2024-01-16T05:16:53;6.37;;;1.40;;
76863;SDS011;65834;52.364;9.754;2024-01-16T05:19:23;5.80;;;1.27;;
76863;SDS011;65834;52.364;9.754;2024-01-16T05:21:53;7.37;;;1.90;;
76863;SDS011;65834;52.364;9.754;2024-01-16T05:24:25;4.10;;;1.27;;
76863;SDS011;65834;52.364;9.754;2024-01-16T05:26:54;4.57;;;1.40;;
76863;SDS011;65834;52.364;9.754;2024-01-16T05:29:24;7.30;;;1.70;;
76863;SDS011;65834;52.364;9.754;2024-01-16T05:31:54;9.63;;;1.97;;
76863;SDS011;65834;52.364;9.754;2024-01-16T05:34:23;7.30;;;1.63;;
76863;SDS011;65834;52.364;9.754;2024-01-16T05:36:54;6.03;;;1.77;;
76863;SDS011;65834;52.364;9.754;2024-01-16T05:39:29;9.68;;;1.88;;
76863;SDS011;65834;52.364;9.754;2024-01-16T05:41:59;12.13;;;2.00;;
76863;SDS011;65834;52.364;9.754;2024-01-16T05:44:29;6.17;;;1.37;;
76863;SDS011;65834;52.364;9.754;2024-01-16T05:47:00;6.43;;;2.30;;
76863;SDS011;65834;52.364;9.754;2024-01-16T05:49:30;6.63;;;1.70;;
76863;SDS011;65834;52.364;9.754;2024-01-16T05:52:00;12.67;;;1.83;;
76863;SDS011;65834;52.364;9.754;2024-01-16T05:54:32;7.27;;;2.10;;
76863;SDS011;65834;52.364;9.754;2024-01-16T05:57:02;5.40;;;1.65;;
76863;SDS011;65834;52.364;9.754;2024-01-16T05:59:32;7.23;;;2.03;;
76863;SDS011;65834;52.364;9.754;2024-01-16T06:02:01;6.97;;;1.93;;
76863;SDS011;65834;52.364;9.754;2024-01-16T06:04:31;5.00;;;1.43;;
76863;SDS011;65834;52.364;9.754;2024-01-16T06:07:02;8.33;;;1.90;;
76863;SDS011;65834;52.364;9.754;2024-01-16T06:09:37;7.77;;;2.07;;
76863;SDS011;65834;52.364;9.754;2024-01-16T06:12:07;8.97;;;2.47;;
76863;SDS011;65834;52.364;9.754;2024-01-16T06:14:38;6.87;;;2.13;;
76863;SDS011;65834;52.364;9.754;2024-01-16T06:17:08;6.67;;;1.97;;
76863;SDS011;65834;52.364;9.754;2024-01-16T06:19:37;5.17;;;2.07;;
76863;SDS011;65834;52.364;9.754;2024-01-16T06:22:07;6.83;;;2.00;;
76863;SDS011;65834;52.364;9.754;2024-01-16T06:24:40;5.80;;;1.90;;
76863;SDS011;65834;52.364;9.754;2024-01-16T06:27:10;6.97;;;1.83;;
76863;SDS011;65834;52.364;9.754;2024-01-16T06:29:45;9.63;;;2.10;;
76863;SDS011;65834;52.364;9.754;2024-01-16T06:32:15;9.67;;;2.43;;
76863;SDS011;65834;52.364;9.754;2024-01-16T06:34:45;10.60;;;2.17;;
76863;SDS011;65834;52.364;9.754;2024-01-16T06:37:14;6.37;;;2.10;;
76863;SDS011;65834;52.364;9.754;2024-01-16T06:39:47;10.67;;;2.50;;
76863;SDS011;65834;52.364;9.754;2024-01-16T06:42:16;4.85;;;1.98;;
76863;SDS011;65834;52.364;9.754;2024-01-16T06:44:46;6.13;;;1.80;;
76863;SDS011;65834;52.364;9.754;2024-01-16T06:47:15;8.80;;;2.07;;
76863;SDS011;65834;52.364;9.754;2024-01-16T06:49:45;9.57;;;2.17;;
76863;SDS011;65834;52.364;9.754;2024-01-16T06:52:15;9.67;;;2.57;;
76863;SDS011;65834;52.364;9.754;2024-01-16T06:54:47;5.43;;;2.13;;
76863;SDS011;65834;52.364;9.754;2024-01-16T06:57:16;5.95;;;2.33;;
76863;SDS011;65834;52.364;9.754;2024-01-16T06:59:46;6.77;;;2.40;;
76863;SDS011;65834;52.364;9.754;2024-01-16T07:02:16;8.93;;;3.00;;
76863;SDS011;65834;52.364;9.754;2024-01-16T07:04:45;7.87;;;2.73;;
76863;SDS011;65834;52.364;9.754;2024-01-16T07:07:15;11.73;;;2.97;;
76863;SDS011;65834;52.364;9.754;2024-01-16T07:09:48;11.37;;;2.43;;
76863;SDS011;65834;52.364;9.754;2024-01-16T07:12:17;7.65;;;2.97;;
76863;SDS011;65834;52.364;9.754;2024-01-16T07:14:47;7.40;;;2.70;;
76863;SDS011;65834;52.364;9.754;2024-01-16T07:17:17;8.17;;;2.70;;
76863;SDS011;65834;52.364;9.754;2024-01-16T07:19:46;8.10;;;2.50;;
76863;SDS011;65834;52.364;9.754;2024-01-16T07:22:16;10.37;;;2.60;;
76863;SDS011;65834;52.364;9.754;2024-01-16T07:24:48;12.10;;;2.70;;
76863;SDS011;65834;52.364;9.754;2024-01-16T07:27:18;7.45;;;2.40;;
76863;SDS011;65834;52.364;9.754;2024-01-16T07:29:47;9.00;;;2.60;;
76863;SDS011;65834;52.364;9.754;2024-01-16T07:32:17;8.10;;;2.73;;
76863;SDS011;65834;52.364;9.754;2024-01-16T07:34:46;11.27;;;2.87;;
76863;SDS011;65834;52.364;9.754;2024-01-16T07:37:17;7.90;;;2.40;;
76863;SDS011;65834;52.364;9.754;2024-01-16T07:39:50;11.63;;;3.03;;
76863;SDS011;65834;52.364;9.754;2024-01-16T07:42:19;10.63;;;3.75;;
76863;SDS011;65834;52.364;9.754;2024-01-16T07:44:49;7.03;;;2.50;;
76863;SDS011;65834;52.364;9.754;2024-01-16T07:47:19;8.80;;;2.90;;
76863;SDS011;65834;52.364;9.754;2024-01-16T07:49:48;8.83;;;2.80;;
76863;SDS011;65834;52.364;9.754;2024-01-16T07:52:18;10.03;;;3.10;;
76863;SDS011;65834;52.364;9.754;2024-01-16T07:54:50;9.70;;;3.33;;
76863;SDS011;65834;52.364;9.754;2024-01-16T07:57:20;7.70;;;2.90;;
76863;SDS011;65834;52.364;9.754;2024-01-16T07:59:49;7.87;;;3.07;;
76863;SDS011;65834;52.364;9.754;2024-01-16T08:02:19;9.87;;;3.57;;
76863;SDS011;65834;52.364;9.754;2024-01-16T08:04:50;9.10;;;2.93;;
76863;SDS011;65834;52.364;9.754;2024-01-16T08:07:19;7.80;;;2.57;;
76863;SDS011;65834;52.364;9.754;2024-01-16T08:09:52;11.27;;;3.13;;
76863;SDS011;65834;52.364;9.754;2024-01-16T08:12:21;8.82;;;2.80;;
76863;SDS011;65834;52.364;9.754;2024-01-16T08:14:51;11.23;;;2.50;;
76863;SDS011;65834;52.364;9.754;2024-01-16T08:17:21;8.03;;;2.87;;
76863;SDS011;65834;52.364;9.754;2024-01-16T08:19:50;8.97;;;3.33;;
76863;SDS011;65834;52.364;9.754;2024-01-16T08:22:20;8.87;;;2.50;;
76863;SDS011;65834;52.364;9.754;2024-01-16T08:24:52;11.37;;;3.07;;
76863;SDS011;65834;52.364;9.754;2024-01-16T08:27:22;7.05;;;2.75;;
76863;SDS011;65834;52.364;9.754;2024-01-16T08:29:51;8.67;;;2.90;;
76863;SDS011;65834;52.364;9.754;2024-01-16T08:32:21;7.90;;;2.73;;
76863;SDS011;65834;52.364;9.754;2024-01-16T08:34:50;8.10;;;2.93;;
76863;SDS011;65834;52.364;9.754;2024-01-16T08:37:20;10.43;;;3.10;;
76863;SDS011;65834;52.364;9.754;2024-01-16T08:39:54;10.97;;;2.93;;
76863;SDS011;65834;52.364;9.754;2024-01-16T08:42:24;9.00;;;3.15;;
76863;SDS011;65834;52.364;9.754;2024-01-16T08:44:53;11.73;;;3.57;;
76863;SDS011;65834;52.364;9.754;2024-01-16T08:47:23;8.93;;;3.00;;
76863;SDS011;65834;52.364;9.754;2024-01-16T08:49:53;11.77;;;3.60;;
76863;SDS011;65834;52.364;9.754;2024-01-16T08:52:22;13.97;;;3.87;;
76863;SDS011;65834;52.364;9.754;2024-01-16T08:54:54;12.43;;;3.43;;
76863;SDS011;65834;52.364;9.754;2024-01-16T08:59:56;8.57;;;3.17;;
76863;SDS011;65834;52.364;9.754;2024-01-16T09:02:26;10.00;;;3.87;;
76863;SDS011;65834;52.364;9.754;2024-01-16T09:04:57;13.13;;;3.83;;
76863;SDS011;65834;52.364;9.754;2024-01-16T09:07:27;10.50;;;4.17;;
76863;SDS011;65834;52.364;9.754;2024-01-16T09:09:59;11.27;;;3.73;;
76863;SDS011;65834;52.364;9.754;2024-01-16T09:12:29;10.35;;;3.33;;
76863;SDS011;65834;52.364;9.754;2024-01-16T09:14:58;11.37;;;3.90;;
76863;SDS011;65834;52.364;9.754;2024-01-16T09:17:28;7.53;;;2.93;;
76863;SDS011;65834;52.364;9.754;2024-01-16T09:19:58;13.40;;;3.90;;
76863;SDS011;65834;52.364;9.754;2024-01-16T09:22:28;16.40;;;5.53;;
76863;SDS011;65834;52.364;9.754;2024-01-16T09:25:00;15.10;;;3.93;;
76863;SDS011;65834;52.364;9.754;2024-01-16T09:27:30;11.52;;;3.83;;
76863;SDS011;65834;52.364;9.754;2024-01-16T09:30:00;11.43;;;3.50;;
76863;SDS011;65834;52.364;9.754;2024-01-16T09:32:29;12.37;;;4.07;;
76863;SDS011;65834;52.364;9.754;2024-01-16T09:35:01;11.00;;;3.20;;
76863;SDS011;65834;52.364;9.754;2024-01-16T09:37:32;10.68;;;3.67;;
76863;SDS011;65834;52.364;9.754;2024-01-16T09:40:05;11.27;;;3.53;;
76863;SDS011;65834;52.364;9.754;2024-01-16T09:42:36;11.43;;;3.67;;
76863;SDS011;65834;52.364;9.754;2024-01-16T09:45:07;11.03;;;3.27;;
76863;SDS011;65834;52.364;9.754;2024-01-16T09:47:38;8.33;;;3.27;;
76863;SDS011;65834;52.364;9.754;2024-01-16T09:50:09;10.93;;;3.83;;
76863;SDS011;65834;52.364;9.754;2024-01-16T09:52:39;10.47;;;3.30;;
76863;SDS011;65834;52.364;9.754;2024-01-16T09:55:12;10.77;;;3.67;;
76863;SDS011;65834;52.364;9.754;2024-01-16T09:57:41;12.00;;;3.33;;
76863;SDS011;65834;52.364;9.754;2024-01-16T10:00:15;9.83;;;3.13;;
76863;SDS011;65834;52.364;9.754;2024-01-16T10:02:45;11.80;;;3.20;;
76863;SDS011;65834;52.364;9.754;2024-01-16T10:05:15;14.30;;;3.77;;
76863;SDS011;65834;52.364;9.754;2024-01-16T10:07:45;7.70;;;3.03;;
76863;SDS011;65834;52.364;9.754;2024-01-16T10:10:18;10.13;;;3.33;;
76863;SDS011;65834;52.364;9.754;2024-01-16T10:13:03;10.83;;;3.07;;
76863;SDS011;65834;52.364;9.754;2024-01-16T10:15:33;10.27;;;3.10;;
76863;SDS011;65834;52.364;9.754;2024-01-16T10:18:04;13.33;;;3.30;;
76863;SDS011;65834;52.364;9.754;2024-01-16T10:20:34;11.37;;;3.00;;
76863;SDS011;65834;52.364;9.754;2024-01-16T10:23:04;9.70;;;3.20;;
76863;SDS011;65834;52.364;9.754;2024-01-16T10:25:36;10.57;;;3.10;;
76863;SDS011;65834;52.364;9.754;2024-01-16T10:28:06;11.98;;;4.35;;
76863;SDS011;65834;52.364;9.754;2024-01-16T10:30:38;8.77;;;2.80;;
76863;SDS011;65834;52.364;9.754;2024-01-16T10:33:14;13.03;;;3.70;;
76863;SDS011;65834;52.364;9.754;2024-01-16T10:35:45;13.27;;;4.23;;
76863;SDS011;65834;52.364;9.754;2024-01-16T10:38:19;12.57;;;3.63;;
76863;SDS011;65834;52.364;9.754;2024-01-16T10:41:06;7.70;;;2.63;;
76863;SDS011;65834;52.364;9.754;2024-01-16T10:43:38;8.83;;;2.70;;
76863;SDS011;65834;52.364;9.754;2024-01-16T10:46:09;10.97;;;3.30;;
76863;SDS011;65834;52.364;9.754;2024-01-16T10:48:40;8.73;;;2.83;;
76863;SDS011;65834;52.364;9.754;2024-01-16T10:51:14;10.13;;;2.55;;
76863;SDS011;65834;52.364;9.754;2024-01-16T10:53:44;9.80;;;2.75;;
76863;SDS011;65834;52.364;9.754;2024-01-16T10:56:18;9.77;;;2.83;;
76863;SDS011;65834;52.364;9.754;2024-01-16T10:58:54;7.63;;;2.80;;
76863;SDS011;65834;52.364;9.754;2024-01-16T11:01:34;7.17;;;2.83;;
76863;SDS011;65834;52.364;9.754;2024-01-16T11:04:04;8.53;;;2.60;;
76863;SDS011;65834;52.364;9.754;2024-01-16T11:06:35;6.97;;;2.57;;
76863;SDS011;65834;52.364;9.754;2024-01-16T11:09:05;8.43;;;2.60;;
76863;SDS011;65834;52.364;9.754;2024-01-16T11:11:39;9.90;;;2.83;;
76863;SDS011;65834;52.364;9.754;2024-01-16T11:14:09;6.47;;;2.58;;
76863;SDS011;65834;52.364;9.754;2024-01-16T11:16:41;8.73;;;2.50;;
76863;SDS011;65834;52.364;9.754;2024-01-16T11:19:11;8.27;;;3.00;;
76863;SDS011;65834;52.364;9.754;2024-01-16T11:22:01;9.67;;;2.83;;
76863;SDS011;65834;52.364;9.754;2024-01-16T11:24:32;11.00;;;3.00;;
76863;SDS011;65834;52.364;9.754;2024-01-16T11:27:04;6.57;;;2.40;;
76863;SDS011;65834;52.364;9.754;2024-01-16T11:29:35;11.07;;;3.30;;
76863;SDS011;65834;52.364;9.754;2024-01-16T11:32:08;9.30;;;3.10;;
76863;SDS011;65834;52.364;9.754;2024-01-16T11:34:53;6.17;;;2.60;;
76863;SDS011;65834;52.364;9.754;2024-01-16T11:37:29;8.03;;;2.90;;
76863;SDS011;65834;52.364;9.754;2024-01-16T11:42:51;7.27;;;2.50;;
76863;SDS011;65834;52.364;9.754;2024-01-16T11:48:20;11.77;;;2.67;;
76863;SDS011;65834;52.364;9.754;2024-01-16T11:50:50;10.00;;;2.97;;
76863;SDS011;65834;52.364;9.754;2024-01-16T11:53:35;7.53;;;2.73;;
76863;SDS011;65834;52.364;9.754;2024-01-16T11:56:12;12.90;;;2.70;;
76863;SDS011;65834;52.364;9.754;2024-01-16T12:02:30;6.60;;;2.47;;
76863;SDS011;65834;52.364;9.754;2024-01-16T12:05:10;9.20;;;2.43;;
76863;SDS011;65834;52.364;9.754;2024-01-16T12:07:47;5.80;;;2.23;;
76863;SDS011;65834;52.364;9.754;2024-01-16T12:10:19;7.97;;;2.57;;
76863;SDS011;65834;52.364;9.754;2024-01-16T12:12:50;10.43;;;2.73;;
76863;SDS011;65834;52.364;9.754;2024-01-16T12:15:23;9.90;;;2.57;;
76863;SDS011;65834;52.364;9.754;2024-01-16T12:17:53;8.60;;;2.90;;
76863;SDS011;65834;52.364;9.754;2024-01-16T12:20:24;8.37;;;2.70;;
76863;SDS011;65834;52.364;9.754;2024-01-16T12:22:55;8.13;;;2.60;;
76863;SDS011;65834;52.364;9.754;2024-01-16T12:25:26;7.03;;;2.70;;
76863;SDS011;65834;52.364;9.754;2024-01-16T12:28:17;8.83;;;2.97;;
76863;SDS011;65834;52.364;9.754;2024-01-16T12:31:01;7.43;;;2.57;;
76863;SDS011;65834;52.364;9.754;2024-01-16T12:33:32;7.57;;;2.83;;
76863;SDS011;65834;52.364;9.754;2024-01-16T12:36:02;11.27;;;2.60;;
76863;SDS011;65834;52.364;9.754;2024-01-16T12:38:33;8.80;;;3.10;;
76863;SDS011;65834;52.364;9.754;2024-01-16T12:41:04;8.63;;;2.93;;
76863;SDS011;65834;52.364;9.754;2024-01-16T12:43:37;8.97;;;3.33;;
76863;SDS011;65834;52.364;9.754;2024-01-16T12:46:10;10.60;;;2.90;;
76863;SDS011;65834;52.364;9.754;2024-01-16T12:48:40;10.87;;;3.43;;
76863;SDS011;65834;52.364;9.754;2024-01-16T12:51:29;11.40;;;3.73;;
76863;SDS011;65834;52.364;9.754;2024-01-16T12:54:09;8.93;;;3.20;;
76863;SDS011;65834;52.364;9.754;2024-01-16T12:56:40;12.03;;;3.60;;
76863;SDS011;65834;52.364;9.754;2024-01-16T12:59:10;9.03;;;3.17;;
76863;SDS011;65834;52.364;9.754;2024-01-16T13:01:43;12.23;;;4.00;;
76863;SDS011;65834;52.364;9.754;2024-01-16T13:04:15;11.27;;;3.83;;
76863;SDS011;65834;52.364;9.754;2024-01-16T13:06:46;12.75;;;4.18;;
76863;SDS011;65834;52.364;9.754;2024-01-16T13:09:16;8.90;;;3.20;;
76863;SDS011;65834;52.364;9.754;2024-01-16T13:11:47;9.80;;;3.80;;
76863;SDS011;65834;52.364;9.754;2024-01-16T13:14:18;12.60;;;4.07;;
76863;SDS011;65834;52.364;9.754;2024-01-16T13:16:51;13.17;;;4.33;;
76863;SDS011;65834;52.364;9.754;2024-01-16T13:19:22;10.57;;;4.00;;
76863;SDS011;65834;52.364;9.754;2024-01-16T13:21:53;10.63;;;4.30;;
76863;SDS011;65834;52.364;9.754;2024-01-16T13:24:23;11.57;;;4.17;;
76863;SDS011;65834;52.364;9.754;2024-01-16T13:26:52;12.70;;;4.53;;
76863;SDS011;65834;52.364;9.754;2024-01-16T13:29:22;15.73;;;4.40;;
76863;SDS011;65834;52.364;9.754;2024-01-16T13:31:54;12.87;;;4.67;;
76863;SDS011;65834;52.364;9.754;2024-01-16T13:34:24;14.27;;;5.87;;
76863;SDS011;65834;52.364;9.754;2024-01-16T13:36:54;11.73;;;4.77;;
76863;SDS011;65834;52.364;9.754;2024-01-16T13:39:41;14.30;;;5.23;;
76863;SDS011;65834;52.364;9.754;2024-01-16T13:42:11;14.63;;;5.70;;
76863;SDS011;65834;52.364;9.754;2024-01-16T13:44:44;16.43;;;5.23;;
76863;SDS011;65834;52.364;9.754;2024-01-16T13:47:17;13.50;;;5.67;;
76863;SDS011;65834;52.364;9.754;2024-01-16T13:49:48;17.23;;;6.13;;
76863;SDS011;65834;52.364;9.754;2024-01-16T13:52:18;14.90;;;6.40;;
76863;SDS011;65834;52.364;9.754;2024-01-16T13:54:51;16.40;;;6.07;;
76863;SDS011;65834;52.364;9.754;2024-01-16T13:57:21;17.47;;;7.73;;
76863;SDS011;65834;52.364;9.754;2024-01-16T13:59:51;15.90;;;6.40;;
76863;SDS011;65834;52.364;9.754;2024-01-16T14:02:23;13.00;;;5.97;;
76863;SDS011;65834;52.364;9.754;2024-01-16T14:04:52;17.38;;;7.00;;
76863;SDS011;65834;52.364;9.754;2024-01-16T14:07:22;16.50;;;6.60;;
76863;SDS011;65834;52.364;9.754;2024-01-16T14:09:52;15.57;;;6.53;;
76863;SDS011;65834;52.364;9.754;2024-01-16T14:12:21;14.30;;;6.47;;
76863;SDS011;65834;52.364;9.754;2024-01-16T14:14:52;15.00;;;6.37;;
76863;SDS011;65834;52.364;9.754;2024-01-16T14:17:25;12.77;;;6.33;;
76863;SDS011;65834;52.364;9.754;2024-01-16T14:19:55;13.70;;;6.32;;
76863;SDS011;65834;52.364;9.754;2024-01-16T14:22:25;13.70;;;6.20;;
76863;SDS011;65834;52.364;9.754;2024-01-16T14:24:55;14.83;;;6.03;;
76863;SDS011;65834;52.364;9.754;2024-01-16T14:27:24;15.03;;;6.37;;
76863;SDS011;65834;52.364;9.754;2024-01-16T14:29:54;15.77;;;6.57;;
76863;SDS011;65834;52.364;9.754;2024-01-16T14:32:26;16.03;;;6.90;;
76863;SDS011;65834;52.364;9.754;2024-01-16T14:34:56;14.60;;;6.57;;
76863;SDS011;65834;52.364;9.754;2024-01-16T14:37:25;14.90;;;5.67;;
76863;SDS011;65834;52.364;9.754;2024-01-16T14:39:55;16.00;;;5.87;;
76863;SDS011;65834;52.364;9.754;2024-01-16T14:42:27;16.58;;;5.82;;
76863;SDS011;65834;52.364;9.754;2024-01-16T14:45:00;15.13;;;6.23;;
76863;SDS011;65834;52.364;9.754;2024-01-16T14:47:32;13.60;;;6.13;;
76863;SDS011;65834;52.364;9.754;2024-01-16T14:50:02;15.35;;;6.60;;
76863;SDS011;65834;52.364;9.754;2024-01-16T14:52:33;16.93;;;5.77;;
76863;SDS011;65834;52.364;9.754;2024-01-16T14:55:02;18.73;;;6.57;;
76863;SDS011;65834;52.364;9.754;2024-01-16T14:57:33;15.80;;;6.13;;
76863;SDS011;65834;52.364;9.754;2024-01-16T15:00:08;13.10;;;5.33;;
76863;SDS011;65834;52.364;9.754;2024-01-16T15:02:49;15.27;;;6.00;;
76863;SDS011;65834;52.364;9.754;2024-01-16T15:07:49;17.90;;;6.03;;
76863;SDS011;65834;52.364;9.754;2024-01-16T15:10:20;13.73;;;5.57;;
76863;SDS011;65834;52.364;9.754;2024-01-16T15:12:50;11.53;;;4.83;;
76863;SDS011;65834;52.364;9.754;2024-01-16T15:15:20;14.10;;;5.13;;
76863;SDS011;65834;52.364;9.754;2024-01-16T15:17:52;11.87;;;4.90;;
76863;SDS011;65834;52.364;9.754;2024-01-16T15:20:22;14.10;;;5.18;;